createdAt,value
2022-10-01T00:01:05.002Z,16.30
2022-10-01T00:03:32.852Z,16.30
2022-10-01T00:06:03.505Z,16.30
2022-10-01T00:08:37.852Z,16.20
2022-10-01T00:11:22.333Z,16.10
2022-10-01T00:13:50.677Z,16.10
2022-10-01T00:16:22.249Z,16.10
2022-10-01T00:18:50.313Z,16.10
2022-10-01T00:21:19.495Z,16.10
2022-10-01T00:23:47.380Z,16.10
2022-10-01T00:26:17.172Z,16.20
2022-10-01T00:28:45.982Z,16.20
2022-10-01T00:31:15.011Z,16.10
2022-10-01T00:33:43.167Z,16.10
2022-10-01T00:36:11.353Z,16.20
2022-10-01T00:38:40.693Z,16.20
2022-10-01T00:41:09.195Z,16.30
2022-10-01T00:43:40.313Z,16.20
2022-10-01T00:46:10.985Z,16.30
2022-10-01T00:48:44.707Z,16.40
2022-10-01T00:51:14.128Z,16.40
2022-10-01T00:53:42.043Z,16.20
2022-10-01T00:56:09.525Z,16.20
2022-10-01T00:58:37.088Z,16.20
2022-10-01T01:01:04.630Z,16.20
2022-10-01T01:03:32.220Z,16.20
2022-10-01T01:05:59.706Z,16.30
2022-10-01T01:08:27.291Z,16.30
2022-10-01T01:11:01.939Z,16.10
2022-10-01T01:13:47.836Z,16.10
2022-10-01T01:16:20.285Z,16.10
2022-10-01T01:19:01.698Z,16.00
2022-10-01T01:21:55.736Z,16.10
2022-10-01T01:24:42.158Z,16.10
2022-10-01T01:27:32.998Z,16.00
2022-10-01T01:30:15.710Z,15.90
2022-10-01T01:33:07.967Z,15.80
2022-10-01T01:35:39.826Z,15.90
2022-10-01T01:38:14.322Z,15.80
2022-10-01T01:40:43.626Z,15.90
2022-10-01T01:43:17.649Z,15.70
2022-10-01T01:45:45.679Z,15.60
2022-10-01T01:48:14.261Z,15.70
2022-10-01T01:50:58.590Z,15.70
2022-10-01T01:53:26.458Z,15.50
2022-10-01T01:55:54.108Z,15.40
2022-10-01T01:58:21.727Z,15.30
2022-10-01T02:00:52.682Z,15.30
2022-10-01T02:03:22.175Z,15.20
2022-10-01T02:05:58.600Z,15.20
2022-10-01T02:08:48.157Z,15.10
2022-10-01T02:11:38.523Z,15.10
2022-10-01T02:14:15.336Z,15.10
2022-10-01T02:16:46.191Z,15.10
2022-10-01T02:19:22.902Z,15.30
2022-10-01T02:21:50.602Z,15.30
2022-10-01T02:24:21.511Z,15.20
2022-10-01T02:26:50.569Z,15.20
2022-10-01T02:29:20.682Z,15.40
2022-10-01T02:31:49.506Z,15.40
2022-10-01T02:34:20.246Z,15.30
2022-10-01T02:36:48.720Z,15.30
2022-10-01T02:39:17.650Z,15.30
2022-10-01T02:41:46.031Z,15.30
2022-10-01T02:44:18.724Z,15.20
2022-10-01T02:46:52.257Z,15.20
2022-10-01T02:49:20.645Z,15.10
2022-10-01T02:51:51.188Z,15.10
2022-10-01T02:54:27.751Z,14.90
2022-10-01T02:57:13.903Z,14.90
2022-10-01T02:59:41.460Z,14.90
2022-10-01T03:02:09.278Z,15.00
2022-10-01T03:04:36.949Z,15.00
2022-10-01T03:07:04.745Z,15.00
2022-10-01T03:09:32.636Z,15.10
2022-10-01T03:12:01.182Z,15.10
2022-10-01T03:14:28.939Z,15.10
2022-10-01T03:16:56.475Z,15.00
2022-10-01T03:19:24.044Z,14.90
2022-10-01T03:21:51.589Z,14.80
2022-10-01T03:24:18.989Z,14.70
2022-10-01T03:26:46.583Z,14.70
2022-10-01T03:29:15.407Z,14.60
2022-10-01T03:31:42.874Z,14.50
2022-10-01T03:34:10.437Z,14.50
2022-10-01T03:36:38.105Z,14.60
2022-10-01T03:39:05.716Z,14.70
2022-10-01T03:41:33.984Z,14.80
2022-10-01T03:44:01.703Z,14.80
2022-10-01T03:46:29.384Z,14.80
2022-10-01T03:49:01.069Z,14.80
2022-10-01T03:51:29.101Z,14.60
2022-10-01T03:53:57.167Z,14.60
2022-10-01T03:56:26.222Z,14.60
2022-10-01T03:58:53.729Z,14.50
2022-10-01T04:01:21.569Z,14.40
2022-10-01T04:03:50.446Z,14.30
2022-10-01T04:06:18.197Z,14.40
2022-10-01T04:08:45.826Z,14.40
2022-10-01T04:11:13.345Z,14.40
2022-10-01T04:13:40.766Z,14.30
2022-10-01T04:16:08.630Z,14.30
2022-10-01T04:18:36.241Z,14.20
2022-10-01T04:21:03.767Z,14.30
2022-10-01T04:23:32.386Z,14.30
2022-10-01T04:26:03.497Z,14.30
2022-10-01T04:28:31.631Z,14.40
2022-10-01T04:31:18.009Z,14.40
2022-10-01T04:33:45.667Z,14.30
2022-10-01T04:36:13.104Z,14.30
2022-10-01T04:38:40.758Z,14.30
2022-10-01T04:41:09.353Z,14.30
2022-10-01T04:43:36.981Z,14.20
2022-10-01T04:46:04.477Z,14.30
2022-10-01T04:48:31.954Z,14.30
2022-10-01T04:50:59.609Z,14.30
2022-10-01T04:53:27.092Z,14.30
2022-10-01T04:55:54.752Z,14.10
2022-10-01T04:58:22.320Z,13.90
2022-10-01T05:00:50.231Z,13.90
2022-10-01T05:03:17.963Z,13.90
2022-10-01T05:05:45.519Z,13.80
2022-10-01T05:08:12.933Z,13.90
2022-10-01T05:10:40.424Z,13.90
2022-10-01T05:13:07.986Z,13.90
2022-10-01T05:15:35.986Z,13.90
2022-10-01T05:18:03.485Z,13.90
2022-10-01T05:20:31.175Z,13.80
2022-10-01T05:22:58.764Z,14.00
2022-10-01T05:25:26.432Z,13.90
2022-10-01T05:27:53.976Z,14.00
2022-10-01T05:30:24.526Z,14.00
2022-10-01T05:32:56.545Z,13.80
2022-10-01T05:35:24.080Z,13.90
2022-10-01T05:37:58.651Z,14.00
2022-10-01T05:40:28.745Z,14.10
2022-10-01T05:42:57.098Z,14.00
2022-10-01T05:45:25.216Z,14.10
2022-10-01T05:48:00.100Z,14.10
2022-10-01T05:50:29.226Z,14.00
2022-10-01T05:52:56.774Z,14.00
2022-10-01T05:55:24.381Z,13.90
2022-10-01T05:57:55.815Z,13.90
2022-10-01T06:00:23.564Z,13.80
2022-10-01T06:02:52.426Z,13.70
2022-10-01T06:05:20.392Z,13.60
2022-10-01T06:07:48.310Z,13.60
2022-10-01T06:10:16.034Z,13.70
2022-10-01T06:12:43.501Z,13.60
2022-10-01T06:15:11.447Z,13.60
2022-10-01T06:17:45.342Z,13.50
2022-10-01T06:20:14.304Z,13.50
2022-10-01T06:22:43.198Z,13.50
2022-10-01T06:25:16.130Z,13.50
2022-10-01T06:27:43.964Z,13.60
2022-10-01T06:30:11.727Z,13.70
2022-10-01T06:32:39.206Z,13.80
2022-10-01T06:35:07.514Z,13.80
2022-10-01T06:37:37.159Z,13.80
2022-10-01T06:40:05.367Z,13.80
2022-10-01T06:42:33.176Z,13.80
2022-10-01T06:45:00.832Z,13.90
2022-10-01T06:47:28.280Z,14.00
2022-10-01T06:49:55.802Z,14.00
2022-10-01T06:52:42.242Z,14.00
2022-10-01T06:55:13.125Z,14.00
2022-10-01T06:57:43.482Z,14.10
2022-10-01T07:00:11.986Z,14.10
2022-10-01T07:02:39.834Z,14.20
2022-10-01T07:05:08.488Z,14.30
2022-10-01T07:07:37.549Z,14.50
2022-10-01T07:10:06.154Z,14.50
2022-10-01T07:12:34.159Z,14.50
2022-10-01T07:15:01.859Z,14.50
2022-10-01T07:17:29.395Z,14.60
2022-10-01T07:19:57.034Z,14.60
2022-10-01T07:22:25.450Z,14.70
2022-10-01T07:24:53.094Z,14.70
2022-10-01T07:27:20.915Z,14.80
2022-10-01T07:29:48.441Z,14.90
2022-10-01T07:32:16.210Z,15.00
2022-10-01T07:34:43.721Z,15.20
2022-10-01T07:37:11.340Z,15.20
2022-10-01T07:39:38.799Z,15.20
2022-10-01T07:42:06.874Z,15.50
2022-10-01T07:44:34.869Z,15.60
2022-10-01T07:47:02.387Z,15.60
2022-10-01T07:49:29.923Z,15.60
2022-10-01T07:51:59.074Z,15.50
2022-10-01T07:54:26.641Z,15.60
2022-10-01T07:56:56.121Z,15.70
2022-10-01T07:59:23.673Z,15.70
2022-10-01T08:01:54.908Z,15.80
2022-10-01T08:04:41.066Z,15.70
2022-10-01T08:07:08.889Z,15.60
2022-10-01T08:09:36.434Z,15.80
2022-10-01T08:12:04.024Z,15.90
2022-10-01T08:14:31.498Z,16.00
2022-10-01T08:16:59.115Z,16.10
2022-10-01T08:19:26.652Z,16.00
2022-10-01T08:21:54.162Z,16.20
2022-10-01T08:24:21.808Z,16.20
2022-10-01T08:26:53.679Z,16.30
2022-10-01T08:29:21.389Z,16.20
2022-10-01T08:31:50.073Z,16.30
2022-10-01T08:34:18.282Z,16.30
2022-10-01T08:36:46.076Z,16.30
2022-10-01T08:39:15.048Z,16.30
2022-10-01T08:41:46.860Z,16.30
2022-10-01T08:44:18.434Z,16.40
2022-10-01T08:46:46.494Z,16.40
2022-10-01T08:49:22.447Z,16.40
2022-10-01T08:51:57.055Z,16.50
2022-10-01T08:54:36.917Z,16.70
2022-10-01T08:57:06.765Z,16.80
2022-10-01T08:59:38.392Z,16.80
2022-10-01T09:02:20.006Z,16.90
2022-10-01T09:04:48.236Z,17.00
2022-10-01T09:07:34.482Z,17.00
2022-10-01T09:10:05.015Z,17.10
2022-10-01T09:12:38.602Z,17.20
2022-10-01T09:15:19.446Z,17.30
2022-10-01T09:18:08.005Z,17.40
2022-10-01T09:20:37.061Z,17.70
2022-10-01T09:23:17.697Z,17.80
2022-10-01T09:25:48.040Z,17.80
2022-10-01T09:28:16.887Z,18.00
2022-10-01T09:30:59.356Z,17.90
2022-10-01T09:33:31.339Z,17.90
2022-10-01T09:36:07.898Z,17.90
2022-10-01T09:38:38.702Z,17.90
2022-10-01T09:41:07.844Z,18.00
2022-10-01T09:43:37.574Z,18.10
2022-10-01T09:46:13.279Z,18.20
2022-10-01T09:48:46.424Z,18.20
2022-10-01T09:51:16.854Z,18.20
2022-10-01T09:53:46.901Z,18.40
2022-10-01T09:56:37.603Z,18.50
2022-10-01T09:59:08.560Z,18.40
2022-10-01T10:01:44.078Z,18.40
2022-10-01T10:04:14.503Z,18.40
2022-10-01T10:06:44.183Z,18.30
2022-10-01T10:09:16.254Z,18.30
2022-10-01T10:11:44.557Z,18.40
2022-10-01T10:14:17.818Z,18.50
2022-10-01T10:16:48.120Z,18.60
2022-10-01T10:19:24.567Z,18.70
2022-10-01T10:22:09.616Z,18.80
2022-10-01T10:24:37.255Z,18.90
2022-10-01T10:27:06.442Z,18.90
2022-10-01T10:29:35.377Z,18.90
2022-10-01T10:32:04.330Z,19.10
2022-10-01T10:34:32.100Z,19.20
2022-10-01T10:37:00.868Z,19.40
2022-10-01T10:39:29.710Z,19.50
2022-10-01T10:41:58.774Z,19.50
2022-10-01T10:44:30.367Z,19.50
2022-10-01T10:47:03.022Z,19.60
2022-10-01T10:49:32.133Z,19.80
2022-10-01T10:52:01.208Z,19.80
2022-10-01T10:54:29.455Z,19.80
2022-10-01T10:57:01.002Z,19.80
2022-10-01T10:59:31.163Z,19.80
2022-10-01T11:02:03.669Z,19.80
2022-10-01T11:04:34.356Z,19.60
2022-10-01T11:07:01.916Z,19.60
2022-10-01T11:09:52.738Z,19.60
2022-10-01T11:12:31.162Z,19.90
2022-10-01T11:14:59.265Z,19.90
2022-10-01T11:17:50.094Z,20.20
2022-10-01T11:20:20.652Z,20.50
2022-10-01T11:23:00.753Z,20.60
2022-10-01T11:25:28.152Z,20.70
2022-10-01T11:27:58.833Z,20.40
2022-10-01T11:30:29.848Z,20.30
2022-10-01T11:33:16.280Z,19.90
2022-10-01T11:35:46.760Z,20.10
2022-10-01T11:38:20.252Z,20.30
2022-10-01T11:41:03.498Z,20.60
2022-10-01T11:43:33.290Z,20.70
2022-10-01T11:46:04.262Z,20.80
2022-10-01T11:48:35.755Z,20.50
2022-10-01T11:51:08.729Z,20.60
2022-10-01T11:53:39.997Z,20.80
2022-10-01T11:56:29.090Z,20.80
2022-10-01T11:59:05.886Z,20.90
2022-10-01T12:01:44.796Z,21.00
2022-10-01T12:04:17.534Z,21.00
2022-10-01T12:06:53.331Z,21.00
2022-10-01T12:09:27.545Z,20.90
2022-10-01T12:12:01.394Z,20.90
2022-10-01T12:14:34.332Z,20.60
2022-10-01T12:17:19.873Z,20.80
2022-10-01T12:19:50.595Z,20.80
2022-10-01T12:22:25.234Z,20.60
2022-10-01T12:24:53.915Z,20.70
2022-10-01T12:27:33.755Z,20.70
2022-10-01T12:30:19.841Z,20.80
2022-10-01T12:32:59.399Z,21.00
2022-10-01T12:35:30.082Z,21.10
2022-10-01T12:38:16.657Z,21.10
2022-10-01T12:40:53.344Z,21.30
2022-10-01T12:43:27.844Z,21.50
2022-10-01T12:46:04.442Z,21.50
2022-10-01T12:48:39.580Z,21.40
2022-10-01T12:51:19.355Z,21.40
2022-10-01T12:54:12.723Z,21.40
2022-10-01T12:56:45.051Z,21.70
2022-10-01T12:59:20.304Z,21.90
2022-10-01T13:01:53.989Z,22.00
2022-10-01T13:04:41.006Z,22.00
2022-10-01T13:07:22.143Z,21.90
2022-10-01T13:09:49.787Z,22.10
2022-10-01T13:12:26.694Z,22.20
2022-10-01T13:14:55.618Z,22.40
2022-10-01T13:17:34.985Z,22.70
2022-10-01T13:20:27.739Z,22.30
2022-10-01T13:23:05.603Z,22.00
2022-10-01T13:25:51.898Z,22.00
2022-10-01T13:28:38.331Z,22.00
2022-10-01T13:31:15.101Z,21.80
2022-10-01T13:33:53.678Z,21.80
2022-10-01T13:36:29.111Z,21.90
2022-10-01T13:38:57.080Z,22.20
2022-10-01T13:41:27.433Z,22.20
2022-10-01T13:43:59.251Z,21.90
2022-10-01T13:46:28.059Z,21.90
2022-10-01T13:48:55.646Z,22.10
2022-10-01T13:51:33.818Z,22.20
2022-10-01T13:54:02.267Z,22.10
2022-10-01T13:56:35.316Z,22.00
2022-10-01T13:59:22.987Z,22.00
2022-10-01T14:01:50.558Z,21.90
2022-10-01T14:04:18.106Z,21.90
2022-10-01T14:06:51.730Z,22.00
2022-10-01T14:09:27.498Z,22.40
2022-10-01T14:12:20.514Z,22.50
2022-10-01T14:15:14.452Z,22.20
2022-10-01T14:17:43.042Z,22.00
2022-10-01T14:20:17.439Z,22.20
2022-10-01T14:23:08.316Z,22.00
2022-10-01T14:25:52.786Z,21.80
2022-10-01T14:28:29.798Z,21.70
2022-10-01T14:31:00.422Z,21.80
2022-10-01T14:33:48.232Z,21.80
2022-10-01T14:36:16.736Z,21.70
2022-10-01T14:38:44.307Z,21.50
2022-10-01T14:41:23.892Z,21.60
2022-10-01T14:43:51.494Z,21.50
2022-10-01T14:46:19.302Z,21.40
2022-10-01T14:48:56.589Z,21.40
2022-10-01T14:51:25.864Z,21.40
2022-10-01T14:53:55.099Z,21.30
2022-10-01T14:56:23.081Z,21.20
2022-10-01T14:58:56.235Z,21.30
2022-10-01T15:01:24.821Z,21.40
2022-10-01T15:03:52.862Z,21.40
2022-10-01T15:06:22.092Z,21.40
2022-10-01T15:08:51.271Z,21.30
2022-10-01T15:11:23.150Z,21.30
2022-10-01T15:13:51.671Z,21.40
2022-10-01T15:16:20.603Z,21.40
2022-10-01T15:18:50.392Z,21.30
2022-10-01T15:21:21.285Z,21.30
2022-10-01T15:23:49.204Z,21.30
2022-10-01T15:26:20.212Z,21.30
2022-10-01T15:28:47.840Z,21.20
2022-10-01T15:31:16.867Z,21.30
2022-10-01T15:33:44.744Z,21.20
2022-10-01T15:36:13.643Z,21.10
2022-10-01T15:38:42.197Z,21.00
2022-10-01T15:41:31.193Z,21.00
2022-10-01T15:44:02.140Z,21.10
2022-10-01T15:46:33.191Z,21.10
2022-10-01T15:49:17.293Z,21.10
2022-10-01T15:52:07.382Z,21.00
2022-10-01T15:54:35.377Z,20.90
2022-10-01T15:57:03.450Z,20.80
2022-10-01T15:59:31.037Z,20.90
2022-10-01T16:01:58.628Z,20.90
2022-10-01T16:04:26.472Z,20.80
2022-10-01T16:06:53.944Z,20.80
2022-10-01T16:09:22.496Z,20.80
2022-10-01T16:12:00.451Z,20.70
2022-10-01T16:14:33.186Z,20.70
2022-10-01T16:17:19.198Z,20.70
2022-10-01T16:19:50.575Z,20.70
2022-10-01T16:22:19.373Z,20.60
2022-10-01T16:24:48.091Z,20.50
2022-10-01T16:27:18.386Z,20.50
2022-10-01T16:30:09.351Z,20.40
2022-10-01T16:32:36.864Z,20.50
2022-10-01T16:35:23.352Z,20.50
2022-10-01T16:37:51.892Z,20.40
2022-10-01T16:40:21.005Z,20.40
2022-10-01T16:42:50.784Z,20.30
2022-10-01T16:45:19.453Z,20.10
2022-10-01T16:47:47.067Z,20.00
2022-10-01T16:50:15.742Z,20.10
2022-10-01T16:52:43.548Z,19.90
2022-10-01T16:55:15.303Z,19.90
2022-10-01T16:57:42.743Z,19.90
2022-10-01T17:00:11.149Z,19.90
2022-10-01T17:02:38.657Z,19.80
2022-10-01T17:05:13.068Z,19.70
2022-10-01T17:07:40.468Z,19.50
2022-10-01T17:10:08.606Z,19.60
2022-10-01T17:12:36.357Z,19.70
2022-10-01T17:15:03.992Z,19.50
2022-10-01T17:17:31.951Z,19.50
2022-10-01T17:19:59.507Z,19.60
2022-10-01T17:22:26.994Z,19.50
2022-10-01T17:24:54.464Z,19.50
2022-10-01T17:27:21.890Z,19.30
2022-10-01T17:29:49.323Z,19.30
2022-10-01T17:32:19.751Z,19.30
2022-10-01T17:34:47.346Z,19.30
2022-10-01T17:37:14.831Z,19.10
2022-10-01T17:39:43.309Z,19.00
2022-10-01T17:42:10.876Z,19.10
2022-10-01T17:44:38.337Z,19.10
2022-10-01T17:47:05.887Z,19.10
2022-10-01T17:49:33.460Z,19.10
2022-10-01T17:52:01.069Z,19.00
2022-10-01T17:54:28.635Z,19.00
2022-10-01T17:56:56.207Z,18.90
2022-10-01T17:59:23.755Z,18.90
2022-10-01T18:01:52.877Z,18.80
2022-10-01T18:04:20.403Z,18.80
2022-10-01T18:06:49.204Z,18.70
2022-10-01T18:09:16.649Z,18.70
2022-10-01T18:11:44.183Z,18.70
2022-10-01T18:14:11.784Z,18.70
2022-10-01T18:16:39.868Z,18.50
2022-10-01T18:21:58.231Z,18.70
2022-10-01T18:24:26.219Z,18.70
2022-10-01T18:26:53.838Z,18.60
2022-10-01T18:29:22.978Z,18.70
2022-10-01T18:32:01.783Z,18.70
2022-10-01T18:34:35.506Z,18.70
2022-10-01T18:37:07.407Z,18.70
2022-10-01T18:39:43.473Z,18.60
2022-10-01T18:42:15.271Z,18.50
2022-10-01T18:44:42.922Z,18.40
2022-10-01T18:47:18.386Z,18.40
2022-10-01T18:50:06.642Z,18.30
2022-10-01T18:52:34.078Z,18.30
2022-10-01T18:55:25.757Z,18.20
2022-10-01T18:57:59.406Z,18.10
2022-10-01T19:00:29.057Z,18.20
2022-10-01T19:03:15.414Z,18.20
2022-10-01T19:05:49.110Z,18.10
2022-10-01T19:08:16.679Z,18.10
2022-10-01T19:10:44.006Z,18.10
2022-10-01T19:13:13.954Z,18.10
2022-10-01T19:16:00.263Z,18.00
2022-10-01T19:18:49.787Z,18.00
2022-10-01T19:21:45.280Z,17.90
2022-10-01T19:24:31.697Z,17.80
2022-10-01T19:26:59.198Z,17.70
2022-10-01T19:29:29.807Z,17.60
2022-10-01T19:32:03.097Z,17.50
2022-10-01T19:34:30.578Z,17.60
2022-10-01T19:37:03.947Z,17.60
2022-10-01T19:39:34.684Z,17.60
2022-10-01T19:42:05.886Z,17.60
2022-10-01T19:44:33.501Z,17.50
2022-10-01T19:47:15.853Z,17.40
2022-10-01T19:49:45.106Z,17.50
2022-10-01T19:52:13.535Z,17.40
2022-10-01T19:54:46.588Z,17.50
2022-10-01T19:57:29.857Z,17.40
2022-10-01T20:00:12.264Z,17.40
2022-10-01T20:02:42.681Z,17.30
2022-10-01T20:05:16.445Z,17.40
2022-10-01T20:07:47.148Z,17.20
2022-10-01T20:10:14.864Z,17.40
2022-10-01T20:12:42.286Z,17.30
2022-10-01T20:15:20.039Z,17.30
2022-10-01T20:17:53.619Z,17.30
2022-10-01T20:20:24.195Z,17.20
2022-10-01T20:22:54.817Z,17.10
2022-10-01T20:25:25.690Z,17.20
2022-10-01T20:27:56.253Z,17.10
2022-10-01T20:30:24.130Z,17.10
2022-10-01T20:32:56.521Z,17.10
2022-10-01T20:35:34.286Z,17.20
2022-10-01T20:38:07.238Z,17.30
2022-10-01T20:40:39.165Z,17.20
2022-10-01T20:43:12.605Z,17.20
2022-10-01T20:45:40.708Z,17.10
2022-10-01T20:48:24.539Z,17.10
2022-10-01T20:50:54.135Z,17.00
2022-10-01T20:53:40.605Z,17.00
2022-10-01T20:56:16.724Z,17.00
2022-10-01T20:58:52.301Z,17.00
2022-10-01T21:01:21.025Z,16.90
2022-10-01T21:03:52.059Z,16.90
2022-10-01T21:06:30.430Z,17.00
2022-10-01T21:09:00.214Z,17.00
2022-10-01T21:11:33.597Z,17.00
2022-10-01T21:14:06.287Z,17.10
2022-10-01T21:16:41.216Z,17.00
2022-10-01T21:19:08.862Z,17.10
2022-10-01T21:21:55.283Z,17.20
2022-10-01T21:24:26.473Z,17.10
2022-10-01T21:26:57.087Z,17.10
2022-10-01T21:29:39.889Z,17.10
2022-10-01T21:32:19.490Z,17.10
2022-10-01T21:35:07.911Z,17.10
2022-10-01T21:37:38.820Z,17.00
2022-10-01T21:40:06.347Z,16.90
2022-10-01T21:42:48.678Z,16.90
2022-10-01T21:45:16.709Z,16.80
2022-10-01T21:47:48.032Z,16.80
2022-10-01T21:50:24.752Z,16.80
2022-10-01T21:52:52.282Z,16.70
2022-10-01T21:55:38.111Z,16.70
2022-10-01T21:58:05.599Z,16.70
2022-10-01T22:00:33.480Z,16.60
2022-10-01T22:03:13.269Z,16.60
2022-10-01T22:05:43.924Z,16.60
2022-10-01T22:08:11.471Z,16.40
2022-10-01T22:10:41.338Z,16.30
2022-10-01T22:13:33.257Z,16.30
2022-10-01T22:16:02.863Z,16.30
2022-10-01T22:18:40.035Z,16.40
2022-10-01T22:21:10.749Z,16.40
2022-10-01T22:23:40.856Z,16.30
2022-10-01T22:26:12.984Z,16.30
2022-10-01T22:28:42.404Z,16.40
2022-10-01T22:31:12.703Z,16.40
2022-10-01T22:33:44.188Z,16.30
2022-10-01T22:36:13.705Z,16.30
2022-10-01T22:38:44.890Z,16.30
2022-10-01T22:41:21.704Z,16.40
2022-10-01T22:43:49.419Z,16.40
2022-10-01T22:46:35.720Z,16.30
2022-10-01T22:49:06.661Z,16.20
2022-10-01T22:51:34.180Z,16.20
2022-10-01T22:54:01.637Z,16.10
2022-10-01T22:56:52.459Z,16.10
2022-10-01T22:59:20.028Z,16.10
2022-10-01T23:02:04.517Z,16.00
2022-10-01T23:04:50.881Z,15.80
2022-10-01T23:07:27.774Z,15.80
2022-10-01T23:09:58.259Z,15.80
2022-10-01T23:12:43.244Z,15.80
2022-10-01T23:15:19.503Z,15.90
2022-10-01T23:17:52.146Z,15.80
2022-10-01T23:20:19.649Z,15.90
2022-10-01T23:23:07.637Z,16.10
2022-10-01T23:25:35.161Z,16.10
2022-10-01T23:28:13.753Z,16.00
2022-10-01T23:31:00.064Z,16.00
2022-10-01T23:33:45.973Z,16.00
2022-10-01T23:36:32.086Z,16.00
2022-10-01T23:39:21.486Z,16.10
2022-10-01T23:41:58.521Z,16.20
2022-10-01T23:44:38.033Z,16.00
2022-10-01T23:47:10.076Z,15.90
2022-10-01T23:49:40.228Z,15.70
2022-10-01T23:52:19.586Z,15.70
2022-10-01T23:54:56.780Z,15.60
2022-10-01T23:57:26.966Z,15.50
